Bei Facebook empfehlenBei Twitter postenGoogle plusPinterest

Das Wetter im Erzgebirge am 22.09.2016

Wetter und Klima am 22.09.2016 Holzhau im Erzgebirge (630m ü.NN)
Letzte gemessene Temperatur und Uhrzeit der Messung23:45:00 Uhr5.30 °C
Temperatur (Maximum / Höchstwert) und Uhrzeit der Messung17:15:00 Uhr16.60 °C
Temperatur (Minimum / Tiefstwert) und Uhrzeit der Messung07:15:003.60 °C
Errechneter Absolutwert der Temperaturschwankungen zwischen Tmin und Tmax des Tages13.00 K
Errechnete Tagesmitteltemperatur9.50729 °C
Gesamt - Niederschlag des Tages (in flüssiger Form)0.00 Liter / m²
Luftdruck (Maximum / Höchstwert) und Zeitpunkt der Messung13:00:00 Uhr1019.70 hPa
Luftdruck (Minimum / Tiefstwert) und Zeitpunkt der Messung00:00:00 Uhr1017.40 hPa
Errechneter Absolutwert der Luftdruckschwankungen des Tages2.30 hPa
Höchste gemessene Windgeschwindigkeit und Uhrzeit der Messung23:45:00 Uhr0.00 km/h
Errechnete Windhäufigkeit in Relation zu den Messwerten des Tages0.00000 %
Niedrigste Windkühle (Windchill) und Zeitpunkt der Messung07:15:00 Uhr3.60 °C
Taupunkt (Maximum / Höchstwert) und Uhrzeit der Messung11:45:00 Uhr13.80 °C
Taupunkt (Minimum / Tiefstwert) und Uhrzeit der Messung07:15:002.70 °C
Anzahl der automatisch eingelesenen Messwerte 96

Detaillierte Wetter- und Klima- Messwerte für den 22.09.2016 in Holzhau im Erzgebirge (630m ü.NN)
ZeitTemperaturLuftdruckRel. LuftfeuchteWindWindrichtungWindchillTaupunktNiederschlag l/m²
23:45:005.30 °C1018.80 hPa91.00 %4.00 °C 
23:30:005.40 °C1018.80 hPa91.00 %4.10 °C 
23:15:005.50 °C1018.80 hPa90.00 %4.00 °C 
23:00:005.60 °C1018.90 hPa90.00 %4.10 °C 
22:45:005.90 °C1018.80 hPa90.00 %4.40 °C 
22:30:006.30 °C1018.70 hPa89.00 %4.60 °C 
22:15:006.20 °C1018.80 hPa89.00 %4.50 °C 
22:00:006.10 °C1018.80 hPa89.00 %4.40 °C 
21:45:006.10 °C1018.90 hPa88.00 %4.30 °C 
21:30:006.20 °C1018.80 hPa87.00 %4.20 °C 
21:15:006.40 °C1018.90 hPa87.00 %4.40 °C 
21:00:006.50 °C1019.20 hPa86.00 %4.30 °C 
20:45:006.80 °C1018.90 hPa85.00 %4.50 °C 
20:30:007.20 °C1018.80 hPa85.00 %4.90 °C 
20:15:007.70 °C1018.80 hPa84.00 %5.20 °C 
20:00:008.40 °C1018.80 hPa83.00 %5.70 °C 
19:45:009.10 °C1018.90 hPa82.00 %6.20 °C 
19:30:009.60 °C1018.70 hPa81.00 %6.50 °C 
19:15:0010.60 °C1019.00 hPa79.00 %7.10 °C 
19:00:0011.70 °C1019.00 hPa77.00 %7.80 °C 
18:45:0012.90 °C1019.30 hPa75.00 %8.60 °C 
18:30:0014.10 °C1019.30 hPa73.00 %9.30 °C 
18:15:0014.90 °C1019.50 hPa71.00 %9.70 °C 
18:00:0015.50 °C1019.50 hPa71.00 %10.30 °C 
17:45:0015.70 °C1019.40 hPa71.00 %10.50 °C 
17:30:0016.10 °C1019.20 hPa70.00 %10.60 °C 
17:15:0016.60 °C1019.00 hPa70.00 %11.10 °C 
17:00:0016.10 °C1019.30 hPa70.00 %10.60 °C 
16:45:0016.00 °C1019.20 hPa70.00 %10.50 °C 
16:30:0015.90 °C1019.20 hPa71.00 %10.70 °C 
16:15:0015.90 °C1019.30 hPa70.00 %10.40 °C 
16:00:0016.10 °C1019.20 hPa69.00 %10.40 °C 
15:45:0016.30 °C1019.40 hPa70.00 %10.80 °C 
15:30:0016.40 °C1019.40 hPa70.00 %10.90 °C 
15:15:0016.60 °C1019.30 hPa70.00 %11.10 °C 
15:00:0016.60 °C1019.30 hPa72.00 %11.50 °C 
14:45:0016.30 °C1019.40 hPa74.00 %11.70 °C 
14:30:0015.60 °C1019.40 hPa76.00 %11.40 °C 
14:15:0015.40 °C1019.50 hPa76.00 %11.20 °C 
14:00:0015.80 °C1019.60 hPa77.00 %11.80 °C 
13:45:0015.90 °C1019.60 hPa79.00 %12.30 °C 
13:30:0014.90 °C1019.60 hPa80.00 %11.50 °C 
13:15:0014.80 °C1019.60 hPa81.00 %11.60 °C 
13:00:0014.90 °C1019.70 hPa82.00 %11.90 °C 
12:45:0014.50 °C1019.70 hPa81.00 %11.30 °C 
12:30:0014.90 °C1019.60 hPa82.00 %11.90 °C 
12:15:0015.20 °C1019.60 hPa84.00 %12.50 °C 
12:00:0015.50 °C1019.70 hPa87.00 %13.30 °C 
11:45:0015.30 °C1019.50 hPa91.00 %13.80 °C 
11:30:0014.10 °C1019.50 hPa93.00 %13.00 °C 
11:15:0013.90 °C1019.60 hPa94.00 %13.00 °C 
11:00:0013.80 °C1019.40 hPa95.00 %13.00 °C 
10:45:0013.60 °C1019.40 hPa95.00 %12.80 °C 
10:30:0013.20 °C1019.40 hPa96.00 %12.60 °C 
10:15:0012.50 °C1019.50 hPa97.00 %12.00 °C 
10:00:0011.80 °C1019.40 hPa96.00 %11.20 °C 
09:45:0010.60 °C1019.40 hPa96.00 %10.00 °C 
09:30:009.50 °C1019.40 hPa96.00 %8.90 °C 
09:15:008.40 °C1019.10 hPa96.00 %7.80 °C 
09:00:007.40 °C1018.80 hPa96.00 %6.80 °C 
08:45:006.30 °C1018.80 hPa95.00 %5.60 °C 
08:30:005.60 °C1018.70 hPa95.00 %4.90 °C 
08:15:004.70 °C1018.70 hPa95.00 %4.00 °C 
08:00:004.20 °C1018.70 hPa95.00 %3.50 °C 
07:45:004.10 °C1018.40 hPa95.00 %3.40 °C 
07:30:003.90 °C1018.40 hPa95.00 %3.20 °C 
07:15:003.60 °C1018.30 hPa94.00 %2.70 °C 
07:00:003.70 °C1018.20 hPa94.00 %2.80 °C 
06:45:003.90 °C1018.00 hPa94.00 %3.00 °C 
06:30:004.10 °C1017.70 hPa94.00 %3.20 °C 
06:15:004.40 °C1017.70 hPa94.00 %3.50 °C 
06:00:004.60 °C1017.70 hPa94.00 %3.70 °C 
05:45:004.50 °C1017.80 hPa94.00 %3.60 °C 
05:30:004.50 °C1017.70 hPa94.00 %3.60 °C 
05:15:004.50 °C1017.70 hPa94.00 %3.60 °C 
05:00:004.90 °C1017.70 hPa94.00 %4.00 °C 
04:45:005.20 °C1017.70 hPa94.00 %4.30 °C 
04:30:005.30 °C1017.70 hPa94.00 %4.40 °C 
04:15:005.40 °C1017.80 hPa94.00 %4.50 °C 
04:00:005.60 °C1017.70 hPa94.00 %4.70 °C 
03:45:006.00 °C1017.70 hPa94.00 %5.10 °C 
03:30:006.30 °C1017.70 hPa94.00 %5.40 °C 
03:15:006.30 °C1017.70 hPa94.00 %5.40 °C 
03:00:006.30 °C1017.70 hPa94.00 %5.40 °C 
02:45:006.10 °C1017.70 hPa93.00 %5.10 °C 
02:30:005.90 °C1017.80 hPa93.00 %4.90 °C 
02:15:005.80 °C1017.90 hPa93.00 %4.80 °C 
02:00:005.40 °C1017.90 hPa93.00 %4.40 °C 
01:45:005.50 °C1017.80 hPa93.00 %4.50 °C 
01:30:005.60 °C1017.70 hPa93.00 %4.60 °C 
01:15:005.50 °C1017.70 hPa93.00 %4.50 °C 
01:00:005.80 °C1017.60 hPa92.00 %4.60 °C 
00:45:006.20 °C1017.50 hPa92.00 %5.00 °C 
00:30:006.40 °C1017.70 hPa92.00 %5.20 °C 
00:15:006.90 °C1017.50 hPa92.00 %5.70 °C 
00:00:007.60 °C1017.40 hPa92.00 %6.40 °C 

Permanenter Link zu dieser Seite: Wetter im Erzgebirge am 22.09.2016
Performance-Info: Die Erstellung der Seite / Statistik(en) / Tabelle(n) erforderte 5 Datenbankserver-Abfrage(n) und dauerte 101 Millisekunden. (Dieser Messwert ist von der Gesamt-Auslastung des Servers abhängig.)
Erzgebirge - Wetter | Erzgebirge - Wetter (Mobilgeräte) | Komplette Klimadatenbank